createdAt,value
2022-10-13T00:00:49.877Z,71.48
2022-10-13T00:03:53.033Z,72.19
2022-10-13T00:06:55.821Z,71.95
2022-10-13T00:09:58.592Z,72.40
2022-10-13T00:13:02.753Z,71.94
2022-10-13T00:16:05.914Z,71.07
2022-10-13T00:19:12.885Z,71.73
2022-10-13T00:22:17.757Z,72.25
2022-10-13T00:25:20.616Z,72.68
2022-10-13T00:28:25.089Z,72.80
2022-10-13T00:31:30.180Z,72.07
2022-10-13T00:34:32.856Z,72.35
2022-10-13T00:37:35.473Z,72.19
2022-10-13T00:40:45.351Z,72.23
2022-10-13T00:43:53.713Z,72.82
2022-10-13T00:46:56.258Z,72.42
2022-10-13T00:49:59.318Z,72.05
2022-10-13T00:53:02.937Z,72.61
2022-10-13T00:56:09.000Z,72.83
2022-10-13T00:59:22.555Z,72.93
2022-10-13T01:02:28.868Z,72.56
2022-10-13T01:05:32.152Z,72.98
2022-10-13T01:08:35.609Z,73.06
2022-10-13T01:11:55.808Z,73.04
2022-10-13T01:15:09.358Z,73.21
2022-10-13T01:18:22.361Z,73.40
2022-10-13T01:21:34.395Z,72.76
2022-10-13T01:24:50.838Z,72.89
2022-10-13T01:28:13.953Z,73.58
2022-10-13T01:31:26.934Z,73.00
2022-10-13T01:34:37.089Z,72.66
2022-10-13T01:37:48.165Z,73.85
2022-10-13T01:41:01.550Z,73.40
2022-10-13T01:44:12.841Z,73.21
2022-10-13T01:47:19.852Z,73.70
2022-10-13T01:50:24.089Z,73.66
2022-10-13T01:53:28.473Z,74.09
2022-10-13T01:56:31.055Z,73.68
2022-10-13T01:59:38.587Z,72.85
2022-10-13T02:02:48.757Z,73.74
2022-10-13T02:06:00.508Z,73.94
2022-10-13T02:09:10.852Z,73.64
2022-10-13T02:12:20.660Z,73.87
2022-10-13T02:15:28.674Z,74.24
2022-10-13T02:18:35.521Z,74.33
2022-10-13T02:21:38.864Z,73.83
2022-10-13T02:24:41.833Z,74.47
2022-10-13T02:27:44.584Z,74.61
2022-10-13T02:30:48.302Z,74.72
2022-10-13T02:33:52.197Z,74.07
2022-10-13T02:36:54.768Z,74.41
2022-10-13T02:39:57.321Z,74.64
2022-10-13T02:43:00.115Z,74.37
2022-10-13T02:46:02.784Z,73.95
2022-10-13T02:49:06.664Z,74.50
2022-10-13T02:52:09.362Z,75.32
2022-10-13T02:55:11.948Z,74.96
2022-10-13T02:58:14.668Z,74.35
2022-10-13T03:01:17.446Z,74.75
2022-10-13T03:04:21.509Z,75.33
2022-10-13T03:07:24.133Z,75.19
2022-10-13T03:10:27.146Z,75.26
2022-10-13T03:13:29.774Z,75.53
2022-10-13T03:16:32.350Z,75.93
2022-10-13T03:19:36.415Z,75.38
2022-10-13T03:22:38.983Z,75.59
2022-10-13T03:25:41.545Z,76.15
2022-10-13T03:28:44.389Z,76.09
2022-10-13T03:31:47.010Z,75.51
2022-10-13T03:34:51.459Z,75.06
2022-10-13T03:37:55.150Z,74.67
2022-10-13T03:40:57.836Z,74.65
2022-10-13T03:44:00.416Z,74.68
2022-10-13T03:47:02.994Z,75.44
2022-10-13T03:50:08.227Z,76.52
2022-10-13T03:53:11.469Z,76.11
2022-10-13T03:56:17.492Z,76.03
2022-10-13T03:59:20.070Z,75.58
2022-10-13T04:02:22.871Z,75.66
2022-10-13T04:05:26.947Z,76.30
2022-10-13T04:08:29.614Z,76.27
2022-10-13T04:11:32.185Z,75.91
2022-10-13T04:14:35.137Z,76.36
2022-10-13T04:17:37.849Z,75.93
2022-10-13T04:20:41.777Z,76.64
2022-10-13T04:23:44.500Z,76.24
2022-10-13T04:26:47.370Z,75.91
2022-10-13T04:29:50.059Z,75.92
2022-10-13T04:32:52.725Z,76.39
2022-10-13T04:35:56.797Z,76.25
2022-10-13T04:38:59.477Z,76.77
2022-10-13T04:42:02.184Z,76.17
2022-10-13T04:45:05.173Z,76.85
2022-10-13T04:48:07.807Z,76.71
2022-10-13T04:51:14.165Z,76.24
2022-10-13T04:54:16.751Z,76.45
2022-10-13T04:57:19.336Z,76.58
2022-10-13T05:00:22.157Z,75.93
2022-10-13T05:03:25.989Z,76.81
2022-10-13T05:06:32.055Z,76.25
2022-10-13T05:09:34.635Z,76.50
2022-10-13T05:12:37.801Z,75.94
2022-10-13T05:15:40.466Z,75.70
2022-10-13T05:18:43.724Z,76.06
2022-10-13T05:21:47.616Z,76.46
2022-10-13T05:24:50.280Z,75.92
2022-10-13T05:27:52.996Z,76.42
2022-10-13T05:30:55.572Z,76.13
2022-10-13T05:33:58.735Z,76.19
2022-10-13T05:37:02.953Z,76.18
2022-10-13T05:40:07.226Z,76.29
2022-10-13T05:43:09.820Z,75.64
2022-10-13T05:46:12.526Z,76.29
2022-10-13T05:49:15.166Z,75.78
2022-10-13T05:52:20.845Z,75.40
2022-10-13T05:55:23.885Z,76.29
2022-10-13T05:58:26.562Z,75.48
2022-10-13T06:01:32.753Z,75.90
2022-10-13T06:04:39.471Z,75.79
2022-10-13T06:07:44.759Z,76.10
2022-10-13T06:10:47.453Z,76.44
2022-10-13T06:13:50.029Z,75.51
2022-10-13T06:16:52.788Z,75.69
2022-10-13T06:19:55.345Z,75.55
2022-10-13T06:22:59.301Z,75.53
2022-10-13T06:26:01.931Z,75.38
2022-10-13T06:29:05.009Z,75.96
2022-10-13T06:32:07.775Z,75.63
2022-10-13T06:35:10.921Z,75.49
2022-10-13T06:38:15.091Z,75.56
2022-10-13T06:41:17.794Z,75.52
2022-10-13T06:44:20.569Z,75.25
2022-10-13T06:47:23.172Z,75.33
2022-10-13T06:50:26.210Z,76.04
2022-10-13T06:53:30.289Z,75.37
2022-10-13T06:56:33.014Z,74.21
2022-10-13T06:59:35.845Z,74.14
2022-10-13T07:02:38.557Z,72.62
2022-10-13T07:05:41.104Z,72.61
2022-10-13T07:08:45.414Z,71.48
2022-10-13T07:11:49.461Z,71.05
2022-10-13T07:14:52.175Z,70.35
2022-10-13T07:17:55.524Z,71.09
2022-10-13T07:20:58.859Z,69.91
2022-10-13T07:24:04.417Z,69.21
2022-10-13T07:27:08.032Z,67.99
2022-10-13T07:30:11.689Z,69.46
2022-10-13T07:33:14.422Z,69.70
2022-10-13T07:36:17.122Z,67.81
2022-10-13T07:39:21.196Z,68.28
2022-10-13T07:42:23.764Z,68.02
2022-10-13T07:45:26.863Z,67.65
2022-10-13T07:48:29.744Z,67.15
2022-10-13T07:51:32.278Z,67.11
2022-10-13T07:54:36.222Z,68.11
2022-10-13T07:57:38.870Z,66.75
2022-10-13T08:00:41.646Z,66.25
2022-10-13T08:03:48.954Z,65.16
2022-10-13T08:06:53.104Z,65.98
2022-10-13T08:09:57.152Z,66.32
2022-10-13T08:12:59.712Z,65.70
2022-10-13T08:16:03.227Z,66.30
2022-10-13T08:19:07.050Z,65.19
2022-10-13T08:22:10.415Z,65.43
2022-10-13T08:25:14.826Z,65.44
2022-10-13T08:28:19.966Z,65.39
2022-10-13T08:31:22.875Z,66.15
2022-10-13T08:34:26.646Z,65.25
2022-10-13T08:37:29.312Z,65.05
2022-10-13T08:40:33.286Z,64.17
2022-10-13T08:43:41.773Z,64.57
2022-10-13T08:47:05.113Z,64.21
2022-10-13T08:50:14.453Z,63.99
2022-10-13T08:53:24.280Z,62.56
2022-10-13T08:56:31.701Z,63.17
2022-10-13T08:59:34.304Z,62.59
2022-10-13T09:02:39.137Z,63.45
2022-10-13T09:05:48.014Z,63.37
2022-10-13T09:08:54.343Z,63.48
2022-10-13T09:12:00.239Z,63.29
2022-10-13T09:15:05.326Z,63.37
2022-10-13T09:18:13.632Z,63.84
2022-10-13T09:21:20.477Z,64.49
2022-10-13T09:24:24.811Z,64.41
2022-10-13T09:27:28.820Z,64.42
2022-10-13T09:30:35.591Z,64.61
2022-10-13T09:33:38.522Z,64.31
2022-10-13T09:36:55.602Z,64.06
2022-10-13T09:40:03.221Z,62.83
2022-10-13T09:43:21.848Z,63.57
2022-10-13T09:46:27.276Z,62.67
2022-10-13T09:49:35.725Z,62.02
2022-10-13T09:52:38.380Z,61.88
2022-10-13T09:55:41.058Z,61.20
2022-10-13T09:58:49.678Z,60.27
2022-10-13T10:01:54.199Z,61.64
2022-10-13T10:05:01.258Z,60.63
2022-10-13T10:08:12.412Z,60.43
2022-10-13T10:11:18.892Z,61.18
2022-10-13T10:14:27.280Z,60.57
2022-10-13T10:17:36.130Z,59.80
2022-10-13T10:20:47.741Z,60.44
2022-10-13T10:23:54.282Z,59.58
2022-10-13T10:27:00.713Z,59.16
2022-10-13T10:30:07.096Z,59.12
2022-10-13T10:33:14.311Z,59.64
2022-10-13T10:36:22.842Z,57.76
2022-10-13T10:39:37.628Z,58.57
2022-10-13T10:42:53.940Z,59.19
2022-10-13T10:46:00.900Z,59.40
2022-10-13T10:49:12.014Z,58.95
2022-10-13T10:52:24.494Z,58.01
2022-10-13T10:55:33.868Z,59.33
2022-10-13T10:58:44.668Z,58.62
2022-10-13T11:01:57.403Z,58.88
2022-10-13T11:05:05.311Z,57.62
2022-10-13T11:08:27.949Z,57.00
2022-10-13T11:11:37.746Z,56.43
2022-10-13T11:14:40.693Z,54.62
2022-10-13T11:17:44.777Z,54.85
2022-10-13T11:20:59.072Z,56.15
2022-10-13T11:24:02.308Z,56.88
2022-10-13T11:27:20.427Z,57.45
2022-10-13T11:30:50.424Z,58.10
2022-10-13T11:34:00.147Z,58.62
2022-10-13T11:37:03.613Z,57.94
2022-10-13T11:40:21.213Z,56.02
2022-10-13T11:43:43.381Z,56.80
2022-10-13T11:47:01.209Z,55.96
2022-10-13T11:50:15.705Z,55.79
2022-10-13T11:53:20.717Z,57.17
2022-10-13T11:56:33.895Z,56.87
2022-10-13T11:59:37.943Z,58.60
2022-10-13T12:02:49.578Z,57.13
2022-10-13T12:05:54.709Z,55.54
2022-10-13T12:08:57.304Z,55.27
2022-10-13T12:12:03.602Z,55.07
2022-10-13T12:15:29.042Z,54.31
2022-10-13T12:18:34.584Z,53.62
2022-10-13T12:21:50.235Z,52.22
2022-10-13T12:25:01.421Z,52.41
2022-10-13T12:28:04.284Z,53.39
2022-10-13T12:31:06.909Z,52.57
2022-10-13T12:34:20.127Z,53.12
2022-10-13T12:37:30.670Z,53.87
2022-10-13T12:40:34.706Z,52.77
2022-10-13T12:43:37.486Z,54.47
2022-10-13T12:46:42.328Z,52.92
2022-10-13T12:49:45.042Z,53.12
2022-10-13T12:52:49.289Z,53.95
2022-10-13T12:55:58.649Z,54.25
2022-10-13T12:59:01.669Z,54.37
2022-10-13T13:02:20.781Z,54.20
2022-10-13T13:05:31.428Z,54.27
2022-10-13T13:08:35.502Z,53.80
2022-10-13T13:11:39.722Z,53.88
2022-10-13T13:14:43.494Z,54.11
2022-10-13T13:17:57.653Z,53.34
2022-10-13T13:21:02.116Z,53.48
2022-10-13T13:24:16.204Z,54.24
2022-10-13T13:27:36.545Z,54.29
2022-10-13T13:30:39.130Z,54.39
2022-10-13T13:33:42.166Z,55.21
2022-10-13T13:36:45.005Z,54.55
2022-10-13T13:39:48.910Z,54.45
2022-10-13T13:42:51.740Z,54.42
2022-10-13T13:45:54.347Z,54.59
2022-10-13T13:48:57.050Z,54.24
2022-10-13T13:51:59.780Z,53.82
2022-10-13T13:55:03.792Z,53.57
2022-10-13T13:58:06.432Z,52.34
2022-10-13T14:01:09.118Z,52.51
2022-10-13T14:04:11.865Z,51.73
2022-10-13T14:07:14.985Z,52.30
2022-10-13T14:10:18.962Z,52.55
2022-10-13T14:13:21.721Z,53.17
2022-10-13T14:16:24.562Z,53.19
2022-10-13T14:19:27.456Z,53.20
2022-10-13T14:22:30.029Z,52.42
2022-10-13T14:25:34.526Z,52.31
2022-10-13T14:28:37.144Z,52.65
2022-10-13T14:31:39.759Z,52.43
2022-10-13T14:34:42.584Z,53.08
2022-10-13T14:37:45.169Z,53.77
2022-10-13T14:40:49.109Z,52.46
2022-10-13T14:43:54.329Z,53.15
2022-10-13T14:46:57.039Z,52.18
2022-10-13T14:50:01.276Z,52.50
2022-10-13T14:53:03.868Z,53.05
2022-10-13T14:56:18.264Z,53.55
2022-10-13T14:59:20.983Z,53.76
2022-10-13T15:02:23.561Z,51.06
2022-10-13T15:05:26.256Z,51.64
2022-10-13T15:08:28.873Z,52.48
2022-10-13T15:11:33.242Z,53.31
2022-10-13T15:14:36.028Z,53.06
2022-10-13T15:17:38.648Z,54.20
2022-10-13T15:20:46.496Z,54.30
2022-10-13T15:23:49.639Z,55.57
2022-10-13T15:26:53.727Z,56.19
2022-10-13T15:29:56.295Z,57.19
2022-10-13T15:32:59.051Z,57.53
2022-10-13T15:36:02.065Z,57.95
2022-10-13T15:39:04.798Z,58.51
2022-10-13T15:42:08.886Z,59.39
2022-10-13T15:45:12.158Z,60.09
2022-10-13T15:48:14.953Z,60.48
2022-10-13T15:51:20.374Z,60.75
2022-10-13T15:54:23.472Z,61.39
2022-10-13T15:57:27.958Z,61.68
2022-10-13T16:00:30.587Z,62.14
2022-10-13T16:03:33.186Z,62.83
2022-10-13T16:06:37.376Z,62.62
2022-10-13T16:09:39.936Z,63.51
2022-10-13T16:12:49.370Z,63.75
2022-10-13T16:15:58.537Z,64.38
2022-10-13T16:19:01.442Z,64.66
2022-10-13T16:22:04.162Z,64.75
2022-10-13T16:25:07.690Z,65.33
2022-10-13T16:28:11.654Z,65.35
2022-10-13T16:31:16.913Z,66.58
2022-10-13T16:34:19.885Z,66.50
2022-10-13T16:37:22.799Z,66.30
2022-10-13T16:40:25.854Z,66.66
2022-10-13T16:43:30.714Z,66.78
2022-10-13T16:46:34.007Z,67.04
2022-10-13T16:49:37.203Z,67.15
2022-10-13T16:52:39.967Z,67.25
2022-10-13T16:55:42.953Z,67.33
2022-10-13T16:58:47.276Z,67.76
2022-10-13T17:01:49.889Z,68.23
2022-10-13T17:04:52.701Z,68.25
2022-10-13T17:07:55.262Z,68.40
2022-10-13T17:10:58.552Z,68.38
2022-10-13T17:14:02.780Z,68.20
2022-10-13T17:17:05.736Z,68.24
2022-10-13T17:20:08.908Z,68.53
2022-10-13T17:23:11.624Z,68.40
2022-10-13T17:26:15.066Z,68.95
2022-10-13T17:29:19.129Z,69.08
2022-10-13T17:32:21.888Z,68.77
2022-10-13T17:35:24.639Z,68.80
2022-10-13T17:38:27.280Z,69.04
2022-10-13T17:41:30.032Z,69.17
2022-10-13T17:44:34.115Z,69.61
2022-10-13T17:47:36.828Z,69.75
2022-10-13T17:50:39.388Z,69.83
2022-10-13T17:53:43.421Z,69.80
2022-10-13T17:56:46.706Z,69.31
2022-10-13T17:59:50.726Z,69.49
2022-10-13T18:02:53.475Z,69.79
2022-10-13T18:05:56.086Z,69.87
2022-10-13T18:08:58.808Z,70.10
2022-10-13T18:12:01.414Z,70.50
2022-10-13T18:15:06.442Z,70.60
2022-10-13T18:18:11.034Z,71.39
2022-10-13T18:21:15.766Z,70.79
2022-10-13T18:24:18.565Z,70.75
2022-10-13T18:27:21.923Z,71.10
2022-10-13T18:30:26.410Z,70.07
2022-10-13T18:33:29.629Z,70.92
2022-10-13T18:36:35.493Z,71.16
2022-10-13T18:39:38.775Z,71.10
2022-10-13T18:42:45.964Z,71.20
2022-10-13T18:45:51.393Z,70.67
2022-10-13T18:48:54.277Z,71.33
2022-10-13T18:51:57.469Z,71.90
2022-10-13T18:55:00.284Z,71.81
2022-10-13T18:58:03.609Z,71.95
2022-10-13T19:01:09.617Z,71.62
2022-10-13T19:04:16.824Z,71.45
2022-10-13T19:07:20.265Z,71.89
2022-10-13T19:10:25.339Z,71.60
2022-10-13T19:13:28.771Z,72.77
2022-10-13T19:16:38.721Z,72.88
2022-10-13T19:19:41.608Z,73.22
2022-10-13T19:22:44.628Z,73.77
2022-10-13T19:25:50.441Z,73.03
2022-10-13T19:28:59.147Z,72.59
2022-10-13T19:32:09.925Z,72.60
2022-10-13T19:35:13.696Z,72.80
2022-10-13T19:38:19.922Z,72.88
2022-10-13T19:41:23.432Z,73.60
2022-10-13T19:44:26.243Z,73.37
2022-10-13T19:47:30.478Z,73.01
2022-10-13T19:50:34.743Z,73.07
2022-10-13T19:53:38.816Z,73.39
2022-10-13T19:56:42.101Z,73.12
2022-10-13T19:59:47.699Z,73.88
2022-10-13T20:02:52.986Z,73.49
2022-10-13T20:05:56.206Z,73.54
2022-10-13T20:08:59.657Z,73.66
2022-10-13T20:12:02.830Z,73.47
2022-10-13T20:15:08.860Z,73.43
2022-10-13T20:18:13.742Z,73.65
2022-10-13T20:21:17.948Z,73.59
2022-10-13T20:24:21.878Z,73.84
2022-10-13T20:27:24.732Z,73.40
2022-10-13T20:30:27.750Z,73.40
2022-10-13T20:33:33.395Z,73.28
2022-10-13T20:36:38.768Z,73.76
2022-10-13T20:39:42.694Z,74.34
2022-10-13T20:42:50.891Z,74.26
2022-10-13T20:46:00.536Z,73.84
2022-10-13T20:49:13.449Z,73.94
2022-10-13T20:52:20.583Z,73.72
2022-10-13T20:55:23.355Z,73.46
2022-10-13T20:58:27.108Z,74.23
2022-10-13T21:01:30.410Z,73.92
2022-10-13T21:04:35.189Z,74.19
2022-10-13T21:07:37.908Z,74.38
2022-10-13T21:10:40.827Z,73.84
2022-10-13T21:13:49.658Z,74.12
2022-10-13T21:16:52.477Z,74.40
2022-10-13T21:19:56.461Z,74.50
2022-10-13T21:23:00.431Z,73.92
2022-10-13T21:26:03.985Z,74.48
2022-10-13T21:29:07.054Z,75.00
2022-10-13T21:32:09.777Z,74.47
2022-10-13T21:35:15.653Z,75.66
2022-10-13T21:38:18.636Z,75.41
2022-10-13T21:41:22.495Z,74.92
2022-10-13T21:44:27.476Z,74.94
2022-10-13T21:47:31.134Z,74.96
2022-10-13T21:50:35.484Z,74.54
2022-10-13T21:53:38.521Z,74.73
2022-10-13T21:56:42.583Z,74.70
2022-10-13T21:59:51.514Z,75.41
2022-10-13T22:02:54.311Z,75.38
2022-10-13T22:05:58.612Z,75.33
2022-10-13T22:09:06.455Z,74.75
2022-10-13T22:12:09.321Z,74.78
2022-10-13T22:15:12.431Z,75.73
2022-10-13T22:18:15.727Z,75.55
2022-10-13T22:21:24.779Z,75.76
2022-10-13T22:24:28.033Z,75.20
2022-10-13T22:27:31.030Z,75.53
2022-10-13T22:30:37.531Z,75.19
2022-10-13T22:33:44.953Z,75.44
2022-10-13T22:36:52.659Z,75.75
2022-10-13T22:39:55.210Z,75.14
2022-10-13T22:42:58.139Z,75.81
2022-10-13T22:46:01.880Z,75.83
2022-10-13T22:49:05.435Z,76.12
2022-10-13T22:52:09.365Z,75.58
2022-10-13T22:55:12.606Z,75.86
2022-10-13T22:58:18.319Z,75.82
2022-10-13T23:01:22.167Z,75.71
2022-10-13T23:04:24.878Z,76.00
2022-10-13T23:07:29.872Z,76.22
2022-10-13T23:10:32.625Z,76.72
2022-10-13T23:13:35.527Z,76.78
2022-10-13T23:16:38.289Z,76.59
2022-10-13T23:19:41.086Z,76.94
2022-10-13T23:22:46.877Z,77.15
2022-10-13T23:25:49.746Z,76.60
2022-10-13T23:28:52.819Z,76.48
2022-10-13T23:31:55.675Z,76.12
2022-10-13T23:34:59.865Z,76.56
2022-10-13T23:38:04.103Z,76.75
2022-10-13T23:41:11.566Z,76.38
2022-10-13T23:44:14.506Z,76.36
2022-10-13T23:47:17.137Z,76.16
2022-10-13T23:50:19.886Z,76.07
2022-10-13T23:53:23.886Z,76.01
2022-10-13T23:56:26.992Z,75.59
2022-10-13T23:59:29.860Z,75.60
